Time;durP1;ratioP1;P1;durP2;ratioP2;P2;SDS_P1;SDS_P2;PMS_P1;PMS_P2;Temp;Humidity;BMP_temperature;BMP_pressure;BME280_temperature;BME280_humidity;BME280_pressure;Samples;Min_cycle;Max_cycle;Signal;HPM_P1;HPM_P2
2023/10/11 00:02:53;;;;;;;11.52;4.25;;;12.50;99.90;;;;;;6227145;28;20050;-78
2023/10/11 00:05:56;;;;;;;4.72;3.80;;;12.50;99.90;;;;;;6224331;28;20046;-76
2023/10/11 00:08:59;;;;;;;11.23;5.25;;;12.50;99.90;;;;;;6217483;28;20050;-78
2023/10/11 00:12:01;;;;;;;7.07;4.60;;;12.50;99.90;;;;;;6227571;28;20049;-76
2023/10/11 00:15:03;;;;;;;8.32;3.92;;;12.50;99.90;;;;;;6224389;28;20614;-79
2023/10/11 00:18:05;;;;;;;8.80;4.43;;;12.50;99.90;;;;;;6225870;28;20077;-76
2023/10/11 00:21:11;;;;;;;10.50;4.22;;;12.50;99.90;;;;;;6224871;28;20672;-76
2023/10/11 00:24:17;;;;;;;6.85;4.35;;;12.50;99.90;;;;;;6227831;28;20185;-79
2023/10/11 00:27:19;;;;;;;7.20;3.53;;;12.50;99.90;;;;;;6213109;28;20049;-79
2023/10/11 00:30:21;;;;;;;7.50;3.88;;;12.50;99.90;;;;;;6218162;28;20125;-76
2023/10/11 00:33:23;;;;;;;5.88;3.33;;;12.50;99.90;;;;;;6224867;28;20057;-76
2023/10/11 00:36:29;;;;;;;7.78;4.72;;;12.50;99.90;;;;;;6235418;28;20137;-79
2023/10/11 00:39:33;;;;;;;7.57;5.32;;;12.50;99.90;;;;;;6215042;28;20046;-79
2023/10/11 00:42:34;;;;;;;9.32;4.45;;;12.50;99.90;;;;;;6221483;28;20042;-79
2023/10/11 00:45:36;;;;;;;11.48;4.97;;;12.50;99.90;;;;;;6216532;28;20053;-79
2023/10/11 00:48:51;;;;;;;6.72;4.50;;;12.50;99.90;;;;;;6217093;28;20073;-79
2023/10/11 00:51:53;;;;;;;11.60;3.90;;;12.50;99.90;;;;;;6222512;28;20139;-79
2023/10/11 00:54:57;;;;;;;7.32;5.05;;;12.50;99.90;;;;;;6216418;28;20533;-78
2023/10/11 00:57:59;;;;;;;14.48;4.82;;;12.50;99.90;;;;;;6222759;28;20045;-76
2023/10/11 01:01:03;;;;;;;6.20;4.13;;;12.40;99.90;;;;;;6224277;28;20498;-76
2023/10/11 01:04:06;;;;;;;9.73;4.03;;;12.40;99.90;;;;;;6215080;28;20059;-78
2023/10/11 01:07:08;;;;;;;9.00;4.53;;;12.40;99.90;;;;;;6223008;28;20123;-76
2023/10/11 01:10:12;;;;;;;4.25;3.20;;;12.30;99.90;;;;;;6230433;28;20049;-76
2023/10/11 01:13:14;;;;;;;6.88;4.65;;;12.30;99.90;;;;;;6216445;28;20396;-76
2023/10/11 01:16:16;;;;;;;10.05;5.38;;;12.20;99.90;;;;;;6223607;28;20507;-78
2023/10/11 01:19:18;;;;;;;8.27;4.65;;;12.10;99.90;;;;;;6224568;28;20046;-78
2023/10/11 01:22:21;;;;;;;8.32;4.10;;;12.00;99.90;;;;;;6224625;28;20042;-79
2023/10/11 01:25:23;;;;;;;9.32;4.25;;;12.00;99.90;;;;;;6225197;28;20050;-78
2023/10/11 01:28:24;;;;;;;5.47;3.95;;;11.90;99.90;;;;;;6224122;28;20058;-78
2023/10/11 01:31:32;;;;;;;6.00;4.05;;;11.90;99.90;;;;;;6223728;28;20426;-78
2023/10/11 01:34:34;;;;;;;12.15;6.30;;;11.90;99.90;;;;;;6225947;28;20049;-78
2023/10/11 01:37:41;;;;;;;7.68;5.15;;;12.00;99.90;;;;;;6226694;28;20116;-78
2023/10/11 01:40:43;;;;;;;7.22;4.03;;;12.20;99.90;;;;;;6226189;28;20049;-78
2023/10/11 01:43:47;;;;;;;9.88;4.40;;;12.40;99.90;;;;;;6225174;28;20049;-78
2023/10/11 01:46:48;;;;;;;9.00;3.97;;;12.60;99.90;;;;;;6223383;28;20053;-78
2023/10/11 01:49:52;;;;;;;7.38;5.03;;;12.70;99.90;;;;;;6223562;28;20049;-76
2023/10/11 01:52:55;;;;;;;11.48;4.20;;;12.70;99.90;;;;;;6222601;28;20068;-76
2023/10/11 01:55:57;;;;;;;13.40;4.30;;;12.70;99.90;;;;;;6213768;28;20042;-76
2023/10/11 01:59:01;;;;;;;10.90;4.78;;;12.70;99.90;;;;;;6221909;28;20052;-77
2023/10/11 02:02:03;;;;;;;10.13;5.57;;;12.70;99.90;;;;;;6208054;28;20069;-78
2023/10/11 02:05:06;;;;;;;10.00;5.57;;;12.70;99.90;;;;;;6221210;28;20041;-78
2023/10/11 02:08:12;;;;;;;9.15;5.30;;;12.70;99.90;;;;;;6212888;28;20049;-77
2023/10/11 02:11:14;;;;;;;11.95;5.60;;;12.70;99.90;;;;;;6223010;28;20041;-78
2023/10/11 02:14:16;;;;;;;12.52;5.13;;;12.70;99.90;;;;;;6220459;28;20046;-78
2023/10/11 02:17:23;;;;;;;7.93;4.55;;;12.70;99.90;;;;;;6223037;28;20419;-77
2023/10/11 02:20:25;;;;;;;11.10;4.90;;;12.70;99.90;;;;;;6213702;28;20050;-79
2023/10/11 02:23:35;;;;;;;8.77;4.97;;;12.70;99.90;;;;;;6206153;28;20053;-76
2023/10/11 02:26:39;;;;;;;8.20;4.75;;;12.70;99.90;;;;;;6221552;28;20503;-76
2023/10/11 02:29:41;;;;;;;9.00;4.35;;;12.80;99.90;;;;;;6213752;28;20055;-76
2023/10/11 02:32:44;;;;;;;9.07;5.35;;;12.80;99.90;;;;;;6213531;28;20142;-75
2023/10/11 02:35:56;;;;;;;8.77;4.55;;;12.70;99.90;;;;;;6222979;28;20049;-75
2023/10/11 02:38:59;;;;;;;10.73;4.45;;;12.60;99.90;;;;;;6203921;28;20404;-75
2023/10/11 02:42:01;;;;;;;9.20;4.63;;;12.40;99.90;;;;;;6221522;28;20042;-76
2023/10/11 02:45:06;;;;;;;6.97;4.25;;;12.20;99.90;;;;;;6217553;28;20701;-76
2023/10/11 02:48:10;;;;;;;11.98;4.53;;;12.10;99.90;;;;;;6211306;28;20364;-75
2023/10/11 02:51:15;;;;;;;9.07;4.50;;;12.00;99.90;;;;;;6220971;28;20176;-76
2023/10/11 02:54:18;;;;;;;8.45;4.30;;;11.90;99.90;;;;;;6220800;28;20422;-75
2023/10/11 02:57:20;;;;;;;6.85;4.00;;;11.70;99.90;;;;;;6221062;28;20046;-75
2023/10/11 03:00:22;;;;;;;8.48;3.78;;;11.60;99.90;;;;;;6219238;28;20130;-76
2023/10/11 03:03:26;;;;;;;11.63;4.80;;;11.50;99.90;;;;;;6203189;28;20056;-76
2023/10/11 03:06:28;;;;;;;6.65;4.00;;;11.40;99.90;;;;;;6220384;28;20050;-76
2023/10/11 03:09:33;;;;;;;8.50;4.72;;;11.40;99.90;;;;;;6212997;28;20194;-76
2023/10/11 03:12:38;;;;;;;9.45;4.75;;;11.30;99.90;;;;;;6220696;28;20395;-77
2023/10/11 03:15:40;;;;;;;7.35;4.32;;;11.30;99.90;;;;;;6220502;28;20181;-76
2023/10/11 03:18:46;;;;;;;7.88;4.85;;;11.30;99.90;;;;;;6219984;28;20507;-75
2023/10/11 03:21:53;;;;;;;10.15;4.53;;;11.20;99.90;;;;;;6220544;28;20061;-75
2023/10/11 03:24:59;;;;;;;10.38;4.70;;;11.20;99.90;;;;;;6217123;28;20500;-76
2023/10/11 03:28:02;;;;;;;9.75;5.45;;;11.20;99.90;;;;;;6216914;28;20042;-75
2023/10/11 03:31:03;;;;;;;9.15;5.95;;;11.10;99.90;;;;;;6212345;28;20529;-75
2023/10/11 03:34:10;;;;;;;11.25;5.70;;;11.30;99.90;;;;;;6220216;28;20068;-75
2023/10/11 03:37:18;;;;;;;8.57;7.03;;;11.30;99.90;;;;;;6206143;28;20105;-75
2023/10/11 03:40:27;;;;;;;13.33;5.77;;;11.40;99.90;;;;;;6219476;28;20157;-75
2023/10/11 03:43:32;;;;;;;12.25;5.20;;;11.40;99.90;;;;;;6220044;28;20131;-76
2023/10/11 03:46:34;;;;;;;9.48;5.47;;;11.40;99.90;;;;;;6220055;28;20053;-76
2023/10/11 03:49:49;;;;;;;11.25;4.72;;;11.40;99.90;;;;;;6220441;28;20499;-75
2023/10/11 03:52:51;;;;;;;8.55;3.75;;;11.30;99.90;;;;;;6220450;28;20052;-76
2023/10/11 03:55:54;;;;;;;5.43;3.42;;;11.20;99.90;;;;;;6219805;28;20038;-76
2023/10/11 03:58:57;;;;;;;12.50;4.40;;;11.20;99.90;;;;;;6219577;28;20419;-76
2023/10/11 04:01:59;;;;;;;7.80;4.60;;;11.20;99.90;;;;;;6220036;28;20050;-75
2023/10/11 04:05:03;;;;;;;7.72;5.55;;;11.00;99.90;;;;;;6220215;28;20049;-76
2023/10/11 04:08:06;;;;;;;9.80;4.95;;;11.00;99.90;;;;;;6219502;28;20045;-76
2023/10/11 04:11:16;;;;;;;6.63;3.70;;;10.90;99.90;;;;;;6219909;28;20145;-76
2023/10/11 04:14:24;;;;;;;10.93;4.75;;;10.80;99.90;;;;;;6211491;28;20045;-77
2023/10/11 04:17:26;;;;;;;7.90;5.63;;;10.80;99.90;;;;;;6225315;28;20042;-76
2023/10/11 04:20:32;;;;;;;5.68;4.00;;;10.70;99.90;;;;;;6227764;28;20124;-78
2023/10/11 04:23:35;;;;;;;11.48;5.07;;;10.70;99.90;;;;;;6228045;28;20116;-76
2023/10/11 04:26:39;;;;;;;13.50;4.25;;;10.70;99.90;;;;;;6223726;28;20069;-77
2023/10/11 04:29:39;;;;;;;10.60;5.95;;;10.60;99.90;;;;;;6223611;28;20073;-77
2023/10/11 04:32:42;;;;;;;12.27;5.28;;;10.50;99.90;;;;;;6223721;28;20513;-77
2023/10/11 04:35:44;;;;;;;5.50;4.13;;;10.50;99.90;;;;;;6223490;28;20050;-76
2023/10/11 04:38:47;;;;;;;9.95;4.78;;;10.50;99.90;;;;;;6217734;28;20042;-77
2023/10/11 04:41:51;;;;;;;7.22;4.82;;;10.40;99.90;;;;;;6223715;28;20699;-76
2023/10/11 04:44:56;;;;;;;15.25;4.95;;;10.40;99.90;;;;;;6223872;28;20068;-76
2023/10/11 04:47:58;;;;;;;5.72;4.25;;;10.40;99.90;;;;;;6216103;28;20532;-77
2023/10/11 04:51:07;;;;;;;8.30;5.07;;;10.30;99.90;;;;;;6223139;28;20053;-77
2023/10/11 04:54:13;;;;;;;9.45;4.40;;;10.30;99.90;;;;;;6221508;28;20533;-76
2023/10/11 04:57:18;;;;;;;12.23;6.10;;;10.20;99.90;;;;;;6239646;22;20033;-83
2023/10/11 05:00:19;;;;;;;12.13;5.18;;;10.20;99.90;;;;;;6254305;28;20045;-80
2023/10/11 05:03:28;;;;;;;10.63;5.07;;;10.20;99.90;;;;;;6255317;28;20045;-80
2023/10/11 05:06:46;;;;;;;10.18;5.38;;;10.20;99.90;;;;;;6246143;28;20128;-80
2023/10/11 05:10:00;;;;;;;13.50;5.35;;;10.10;99.90;;;;;;6237397;28;20049;-79
2023/10/11 05:13:05;;;;;;;8.70;4.90;;;10.10;99.90;;;;;;6233882;28;20053;-80
2023/10/11 05:16:11;;;;;;;12.55;4.88;;;10.10;99.90;;;;;;6219382;28;20414;-79
2023/10/11 05:19:20;;;;;;;8.93;4.93;;;10.00;99.90;;;;;;6228464;28;20056;-79
2023/10/11 05:22:29;;;;;;;13.68;5.32;;;10.10;99.90;;;;;;6236103;28;20112;-78
2023/10/11 05:29:09;;;;;;;9.73;5.57;;;10.20;99.90;;;;;;6227839;28;20050;-77
2023/10/11 05:36:14;;;;;;;14.98;6.95;;;10.50;99.90;;;;;;6222809;28;20037;-79
2023/10/11 05:52:42;;;;;;;11.35;4.57;;;10.90;99.90;;;;;;6230701;28;20061;-79
2023/10/11 05:55:45;;;;;;;10.07;4.90;;;10.90;99.90;;;;;;6227467;28;20041;-79
2023/10/11 05:58:51;;;;;;;11.70;5.45;;;11.00;99.90;;;;;;6217372;28;20101;-79
2023/10/11 06:01:55;;;;;;;8.32;4.65;;;11.00;99.90;;;;;;6230002;28;20049;-80
2023/10/11 06:05:02;;;;;;;10.65;5.55;;;11.10;99.90;;;;;;6242513;28;20077;-82
2023/10/11 06:08:15;;;;;;;10.43;6.10;;;11.20;99.90;;;;;;6239794;28;20044;-79
2023/10/11 06:11:19;;;;;;;7.10;4.88;;;11.30;99.90;;;;;;6228949;28;20064;-80
2023/10/11 06:14:22;;;;;;;10.18;5.82;;;11.50;99.90;;;;;;6226175;28;20100;-80
2023/10/11 06:17:41;;;;;;;8.80;5.30;;;11.60;99.90;;;;;;6226951;28;20050;-80
2023/10/11 06:21:01;;;;;;;8.70;5.13;;;11.80;99.90;;;;;;6235799;28;20050;-80
2023/10/11 06:24:07;;;;;;;13.80;5.30;;;11.90;99.90;;;;;;6236154;28;20056;-80
2023/10/11 06:30:51;;;;;;;13.18;6.88;;;12.20;99.90;;;;;;6227722;28;20573;-80
2023/10/11 06:34:01;;;;;;;13.73;5.03;;;12.30;99.90;;;;;;6233058;28;20054;-78
2023/10/11 06:37:24;;;;;;;10.40;4.90;;;12.40;99.90;;;;;;6238910;28;20080;-79
2023/10/11 06:40:47;;;;;;;12.45;4.40;;;12.50;99.90;;;;;;6223288;28;20061;-80
2023/10/11 06:44:00;;;;;;;12.82;5.18;;;12.70;99.90;;;;;;6193605;28;20065;-81
2023/10/11 06:47:05;;;;;;;14.95;5.20;;;12.90;99.90;;;;;;6230548;28;20079;-79
2023/10/11 06:50:12;;;;;;;12.20;4.97;;;13.00;99.90;;;;;;6234610;28;20042;-79
2023/10/11 06:53:14;;;;;;;8.80;5.30;;;13.20;99.90;;;;;;6250830;28;20045;-79
2023/10/11 06:56:16;;;;;;;6.93;4.45;;;13.40;99.90;;;;;;6249848;28;20414;-81
2023/10/11 06:59:22;;;;;;;9.40;4.35;;;13.60;99.90;;;;;;6226780;28;20054;-81
2023/10/11 07:02:31;;;;;;;8.63;5.95;;;13.90;99.90;;;;;;6240191;28;20042;-80
2023/10/11 07:05:49;;;;;;;10.63;5.80;;;14.20;99.90;;;;;;6251698;28;20517;-82
2023/10/11 07:09:19;;;;;;;6.63;4.32;;;14.60;99.90;;;;;;6234089;28;20046;-82
2023/10/11 07:12:29;;;;;;;13.65;4.28;;;14.90;99.90;;;;;;6228025;28;20054;-81
2023/10/11 07:15:40;;;;;;;6.75;4.35;;;15.20;99.90;;;;;;6226994;28;20049;-81
2023/10/11 07:18:54;;;;;;;14.70;4.88;;;15.50;99.90;;;;;;6227196;28;20057;-81
2023/10/11 07:22:22;;;;;;;6.43;4.55;;;15.70;99.90;;;;;;6217853;28;20050;-81
2023/10/11 07:28:50;;;;;;;7.95;4.25;;;16.20;99.90;;;;;;6214933;28;20423;-80
2023/10/11 07:31:53;;;;;;;11.15;4.05;;;16.50;99.90;;;;;;6226443;28;20244;-81
2023/10/11 07:34:55;;;;;;;12.50;4.25;;;16.70;99.90;;;;;;6226360;28;20415;-80
2023/10/11 07:38:00;;;;;;;8.93;3.97;;;16.90;99.90;;;;;;6229896;28;20058;-80
2023/10/11 07:41:05;;;;;;;10.98;4.70;;;17.30;99.90;;;;;;6212357;28;20166;-81
2023/10/11 07:44:11;;;;;;;12.25;3.90;;;17.50;99.90;;;;;;6225384;28;20136;-82
2023/10/11 07:47:16;;;;;;;6.55;3.88;;;17.70;99.90;;;;;;6224310;28;20046;-80
2023/10/11 07:50:22;;;;;;;18.55;4.47;;;18.00;99.90;;;;;;6228381;28;20053;-81
2023/10/11 07:53:32;;;;;;;7.93;3.63;;;18.20;99.90;;;;;;6231191;28;20057;-80
2023/10/11 07:56:38;;;;;;;11.68;4.93;;;18.50;99.90;;;;;;6229386;28;20525;-80
2023/10/11 07:59:41;;;;;;;12.52;4.15;;;18.70;99.90;;;;;;6229235;28;20070;-78
2023/10/11 08:02:56;;;;;;;7.18;4.78;;;19.00;99.90;;;;;;6221932;28;20053;-79
2023/10/11 08:06:05;;;;;;;9.98;4.38;;;19.20;99.30;;;;;;6228655;28;20050;-80
2023/10/11 08:09:09;;;;;;;9.55;4.43;;;19.50;98.50;;;;;;6229802;28;20114;-80
2023/10/11 08:12:19;;;;;;;12.88;5.75;;;19.70;97.90;;;;;;6232670;28;20116;-80
2023/10/11 08:15:22;;;;;;;9.00;4.13;;;19.90;97.30;;;;;;6191227;28;20037;-82
2023/10/11 08:21:54;;;;;;;7.10;3.58;;;20.80;94.90;;;;;;6219234;28;20153;-80
2023/10/11 08:25:04;;;;;;;7.88;2.97;;;20.90;94.00;;;;;;6235304;28;20601;-81
2023/10/11 08:28:19;;;;;;;4.90;3.35;;;21.10;93.50;;;;;;6256654;28;20403;-82
2023/10/11 08:31:35;;;;;;;7.55;4.15;;;21.60;92.60;;;;;;6254198;28;20042;-83
2023/10/11 08:34:37;;;;;;;5.32;2.85;;;22.20;91.70;;;;;;6215124;28;20065;-82
2023/10/11 08:37:41;;;;;;;5.88;3.70;;;22.80;90.50;;;;;;6227782;28;20133;-81
2023/10/11 08:40:50;;;;;;;11.57;3.65;;;23.20;88.00;;;;;;6206182;28;20500;-82
2023/10/11 08:43:56;;;;;;;8.48;4.78;;;23.40;86.00;;;;;;6207371;28;20048;-82
2023/10/11 08:47:03;;;;;;;5.97;3.15;;;23.60;84.30;;;;;;6204707;28;20042;-80
2023/10/11 08:50:14;;;;;;;7.47;3.72;;;23.90;82.70;;;;;;6205837;28;20124;-81
2023/10/11 08:53:21;;;;;;;7.28;4.05;;;24.20;80.60;;;;;;6206838;28;20157;-81
2023/10/11 08:56:26;;;;;;;5.05;3.45;;;24.40;79.40;;;;;;6202514;28;20057;-80
2023/10/11 08:59:30;;;;;;;6.57;4.32;;;24.70;77.70;;;;;;6204905;28;20057;-82
2023/10/11 09:02:33;;;;;;;10.68;3.00;;;24.70;76.40;;;;;;6210148;28;20102;-83
2023/10/11 09:05:43;;;;;;;7.50;3.88;;;24.70;75.50;;;;;;6229244;28;20081;-82
2023/10/11 09:08:47;;;;;;;23.98;5.53;;;25.00;74.40;;;;;;6206277;28;20050;-80
2023/10/11 09:11:57;;;;;;;7.63;3.22;;;25.20;73.10;;;;;;6206281;28;20050;-81
2023/10/11 09:15:03;;;;;;;14.10;4.20;;;25.20;71.90;;;;;;6208443;28;20054;-81
2023/10/11 09:18:25;;;;;;;7.07;3.13;;;25.40;71.40;;;;;;6207882;28;20047;-84
2023/10/11 09:21:29;;;;;;;5.25;3.30;;;25.60;70.50;;;;;;6213294;28;20050;-82
2023/10/11 09:24:39;;;;;;;8.02;3.00;;;25.70;69.40;;;;;;6206040;28;20447;-84
2023/10/11 09:27:48;;;;;;;12.00;3.42;;;25.80;69.30;;;;;;6196254;28;20468;-82
2023/10/11 09:31:09;;;;;;;10.23;3.38;;;26.00;68.80;;;;;;6206361;28;20057;-83
2023/10/11 09:34:18;;;;;;;8.00;3.95;;;26.30;68.00;;;;;;6203746;28;20257;-79
2023/10/11 09:37:20;;;;;;;6.10;3.13;;;26.60;67.60;;;;;;6204461;28;20138;-82
2023/10/11 09:40:33;;;;;;;11.65;4.32;;;27.10;66.70;;;;;;6204227;28;20073;-83
2023/10/11 09:43:45;;;;;;;11.48;3.25;;;27.50;65.60;;;;;;6204575;28;20066;-82
2023/10/11 09:46:48;;;;;;;8.15;3.75;;;27.60;64.10;;;;;;6204943;28;20047;-80
2023/10/11 09:49:53;;;;;;;10.00;3.47;;;27.50;63.50;;;;;;6208795;28;20046;-80
2023/10/11 09:53:00;;;;;;;17.02;5.03;;;27.40;63.20;;;;;;6206209;28;20059;-82
2023/10/11 09:56:15;;;;;;;5.43;3.35;;;27.40;62.70;;;;;;6205045;28;20415;-81
2023/10/11 09:59:34;;;;;;;6.57;2.13;;;27.70;62.40;;;;;;6205310;28;20508;-82
2023/10/11 10:02:37;;;;;;;10.82;3.72;;;28.10;61.80;;;;;;6204935;28;20042;-80
2023/10/11 10:06:07;;;;;;;8.07;2.88;;;28.30;60.40;;;;;;6220222;28;20046;-82
2023/10/11 10:09:23;;;;;;;15.57;4.20;;;28.20;60.40;;;;;;6230294;28;20072;-84
2023/10/11 10:12:33;;;;;;;7.07;2.83;;;28.20;59.80;;;;;;6229806;28;20046;-82
2023/10/11 10:15:49;;;;;;;10.93;4.00;;;28.40;59.90;;;;;;6229542;28;20119;-84
2023/10/11 10:19:21;;;;;;;8.50;3.63;;;28.40;58.90;;;;;;6220528;28;20047;-82
2023/10/11 10:22:27;;;;;;;11.65;3.88;;;28.40;58.80;;;;;;6204094;28;20133;-81
2023/10/11 10:28:54;;;;;;;6.97;2.88;;;28.50;57.90;;;;;;6227493;28;20411;-84
2023/10/11 10:32:10;;;;;;;7.13;2.38;;;28.30;57.90;;;;;;6225907;28;20413;-82
2023/10/11 10:35:37;;;;;;;6.40;2.72;;;28.40;57.50;;;;;;6228237;28;20053;-83
2023/10/11 10:42:27;;;;;;;9.70;3.22;;;28.90;57.20;;;;;;6223655;28;20060;-83
2023/10/11 10:45:31;;;;;;;9.82;3.20;;;29.30;56.60;;;;;;6212477;28;20050;-80
2023/10/11 10:48:43;;;;;;;6.57;2.33;;;29.40;56.00;;;;;;6205081;28;20486;-82
2023/10/11 10:51:47;;;;;;;13.38;3.90;;;29.40;55.50;;;;;;6201460;28;20057;-82
2023/10/11 10:55:02;;;;;;;10.05;3.80;;;29.40;55.10;;;;;;6208556;28;20074;-83
2023/10/11 10:58:07;;;;;;;11.18;4.90;;;29.30;55.10;;;;;;6217377;28;20053;-77
2023/10/11 11:01:21;;;;;;;14.77;3.22;;;29.30;54.90;;;;;;6213276;28;20441;-81
2023/10/11 11:04:29;;;;;;;4.93;2.80;;;29.30;54.60;;;;;;6220063;28;20179;-82
2023/10/11 11:07:33;;;;;;;;;;;29.50;54.30;;;;;;6222226;28;20034;-79
2023/10/11 11:10:34;;;;;;;6.28;2.42;;;29.50;55.10;;;;;;6215273;28;19925;-80
2023/10/11 11:13:39;;;;;;;3.95;2.58;;;29.50;54.50;;;;;;6216578;28;20119;-80
2023/10/11 11:16:54;;;;;;;3.90;2.78;;;29.50;54.10;;;;;;6216713;28;20495;-81
2023/10/11 11:20:13;;;;;;;7.13;2.60;;;29.60;53.80;;;;;;6202700;28;20050;-80
2023/10/11 11:23:24;;;;;;;8.60;2.88;;;29.80;53.80;;;;;;6208465;28;20530;-81
2023/10/11 11:26:35;;;;;;;6.10;3.05;;;30.10;53.20;;;;;;6224876;28;20105;-81
2023/10/11 11:29:39;;;;;;;9.18;2.85;;;30.40;52.50;;;;;;6229623;28;20046;-80
2023/10/11 11:32:45;;;;;;;7.70;3.22;;;30.40;51.90;;;;;;6232431;28;20062;-80
2023/10/11 11:35:53;;;;;;;12.27;2.63;;;30.30;51.60;;;;;;6211245;28;20183;-78
2023/10/11 11:38:54;;;;;;;7.90;3.47;;;30.10;51.70;;;;;;6210759;28;20064;-80
2023/10/11 11:41:59;;;;;;;10.35;3.75;;;30.20;52.20;;;;;;6214361;28;20057;-81
2023/10/11 11:45:03;;;;;;;9.27;2.90;;;30.40;52.00;;;;;;6220974;28;20054;-80
2023/10/11 11:48:05;;;;;;;7.85;2.70;;;30.80;51.60;;;;;;6221172;28;20096;-80
2023/10/11 11:51:13;;;;;;;15.15;3.35;;;30.90;51.00;;;;;;6225426;28;20085;-82
2023/10/11 11:54:17;;;;;;;14.00;2.70;;;31.00;50.40;;;;;;6227065;28;20057;-80
2023/10/11 11:57:29;;;;;;;8.82;3.15;;;30.90;50.40;;;;;;6224765;28;20046;-76
2023/10/11 12:00:45;;;;;;;11.73;2.83;;;30.90;50.80;;;;;;6230622;28;20085;-79
2023/10/11 12:03:54;;;;;;;6.13;2.50;;;30.90;50.40;;;;;;6217069;28;20053;-81
2023/10/11 12:06:59;;;;;;;15.18;2.90;;;31.10;50.30;;;;;;6222654;28;20079;-82
2023/10/11 12:10:10;;;;;;;12.48;4.28;;;31.00;49.60;;;;;;6212364;28;20092;-80
2023/10/11 12:13:17;;;;;;;4.43;3.15;;;30.90;49.70;;;;;;6218786;28;20060;-81
2023/10/11 12:16:22;;;;;;;7.27;2.97;;;30.80;49.70;;;;;;6214034;28;20049;-80
2023/10/11 12:19:32;;;;;;;15.52;5.72;;;30.70;50.00;;;;;;6225166;28;20122;-80
2023/10/11 12:22:42;;;;;;;4.82;2.75;;;30.80;49.80;;;;;;6227249;28;20069;-80
2023/10/11 12:25:47;;;;;;;9.32;3.03;;;31.00;49.50;;;;;;6213050;28;20057;-80
2023/10/11 12:28:51;;;;;;;6.03;2.72;;;31.10;49.40;;;;;;6232561;28;20277;-81
2023/10/11 12:31:53;;;;;;;5.53;2.45;;;31.20;48.90;;;;;;6231533;28;20174;-80
2023/10/11 12:34:57;;;;;;;3.22;1.77;;;31.20;48.80;;;;;;6215666;28;20057;-84
2023/10/11 12:38:03;;;;;;;5.95;2.45;;;31.30;48.40;;;;;;6220565;28;20042;-79
2023/10/11 12:41:14;;;;;;;13.75;4.03;;;31.20;48.50;;;;;;6215259;28;20058;-85
2023/10/11 12:44:19;;;;;;;12.43;4.20;;;31.30;48.70;;;;;;6222143;28;20553;-77
2023/10/11 12:47:21;;;;;;;6.57;3.53;;;31.50;48.30;;;;;;6220830;28;20396;-79
2023/10/11 12:50:23;;;;;;;7.15;3.80;;;31.30;47.80;;;;;;6228198;28;20050;-83
2023/10/11 12:53:33;;;;;;;14.00;3.10;;;31.10;48.00;;;;;;6221140;28;20126;-81
2023/10/11 12:56:37;;;;;;;7.57;3.22;;;31.10;47.90;;;;;;6204235;28;20061;-81
2023/10/11 12:59:42;;;;;;;8.60;2.97;;;31.00;48.00;;;;;;6203679;28;20065;-80
2023/10/11 13:02:48;;;;;;;6.82;2.33;;;30.90;48.30;;;;;;6203825;28;20042;-81
2023/10/11 13:05:52;;;;;;;7.78;2.35;;;30.90;48.50;;;;;;6203113;28;20054;-81
2023/10/11 13:08:59;;;;;;;6.03;2.65;;;31.00;48.30;;;;;;6204850;28;20434;-81
2023/10/11 13:12:04;;;;;;;4.57;2.50;;;31.20;48.00;;;;;;6179723;28;20050;-80
2023/10/11 13:15:16;;;;;;;14.43;3.58;;;31.10;47.60;;;;;;6194513;28;20435;-81
2023/10/11 13:18:21;;;;;;;5.40;2.15;;;30.90;47.80;;;;;;6220034;28;20072;-81
2023/10/11 13:21:26;;;;;;;4.82;2.50;;;30.80;47.90;;;;;;6204241;28;20051;-80
2023/10/11 13:24:40;;;;;;;5.55;2.67;;;30.80;48.00;;;;;;6207904;28;20038;-80
2023/10/11 13:27:45;;;;;;;4.22;2.72;;;30.80;47.90;;;;;;6227745;28;20168;-82
2023/10/11 13:30:47;;;;;;;4.65;2.88;;;30.70;47.90;;;;;;6228791;28;20116;-79
2023/10/11 13:33:53;;;;;;;6.10;3.25;;;30.60;47.70;;;;;;6233939;28;20049;-79
2023/10/11 13:36:57;;;;;;;15.07;4.88;;;30.60;47.70;;;;;;6229888;28;20060;-80
2023/10/11 13:40:05;;;;;;;4.18;2.78;;;30.40;47.90;;;;;;6224264;28;20038;-77
2023/10/11 13:43:11;;;;;;;7.47;2.85;;;30.40;48.20;;;;;;6227412;28;20585;-79
2023/10/11 13:46:19;;;;;;;6.20;3.13;;;30.40;48.40;;;;;;6223449;28;20046;-80
2023/10/11 13:49:25;;;;;;;7.68;2.08;;;30.60;48.40;;;;;;6216146;28;20049;-78
2023/10/11 13:52:27;;;;;;;6.20;2.63;;;30.80;48.00;;;;;;6223380;28;20053;-80
2023/10/11 13:55:39;;;;;;;4.50;2.80;;;30.90;48.00;;;;;;6215095;28;20038;-79
2023/10/11 13:58:46;;;;;;;8.98;3.03;;;30.90;47.60;;;;;;6224134;28;20034;-80
2023/10/11 14:02:13;;;;;;;9.35;3.85;;;30.70;47.70;;;;;;6224185;28;20057;-80
2023/10/11 14:05:19;;;;;;;11.45;2.92;;;30.70;47.70;;;;;;6224247;28;20141;-80
2023/10/11 14:08:24;;;;;;;4.72;3.88;;;30.50;47.60;;;;;;6213979;28;20129;-79
2023/10/11 14:11:30;;;;;;;8.63;3.13;;;30.60;47.60;;;;;;6217341;28;20046;-79
2023/10/11 14:14:39;;;;;;;15.82;3.65;;;30.60;47.40;;;;;;6197892;28;20189;-81
2023/10/11 14:17:54;;;;;;;4.25;2.28;;;30.40;47.50;;;;;;6202328;28;20050;-79
2023/10/11 14:21:01;;;;;;;7.00;2.83;;;30.30;47.50;;;;;;6214416;28;20065;-81
2023/10/11 14:24:08;;;;;;;7.15;3.28;;;30.10;47.60;;;;;;6197398;28;20051;-80
2023/10/11 14:27:18;;;;;;;6.25;3.50;;;30.10;47.70;;;;;;6198482;28;20050;-81
2023/10/11 14:30:20;;;;;;;8.38;2.67;;;30.00;47.70;;;;;;6197569;28;20623;-79
2023/10/11 14:33:22;;;;;;;11.95;3.50;;;30.00;47.90;;;;;;6215368;28;20054;-79
2023/10/11 14:36:25;;;;;;;6.63;2.75;;;30.10;47.90;;;;;;6224714;28;20037;-80
2023/10/11 14:39:31;;;;;;;5.57;2.83;;;30.10;47.80;;;;;;6221738;28;20038;-79
2023/10/11 14:42:43;;;;;;;4.90;3.05;;;30.00;48.00;;;;;;6222693;28;20124;-80
2023/10/11 14:45:48;;;;;;;10.65;2.80;;;30.00;47.80;;;;;;6205845;28;20053;-79
2023/10/11 14:49:01;;;;;;;6.22;3.22;;;29.80;47.80;;;;;;6210453;28;20069;-80
2023/10/11 14:52:08;;;;;;;12.00;3.38;;;29.60;48.00;;;;;;6196626;28;20133;-77
2023/10/11 14:55:16;;;;;;;10.40;3.05;;;29.60;48.10;;;;;;6198285;28;20530;-81
2023/10/11 14:58:21;;;;;;;6.22;2.35;;;29.50;48.30;;;;;;6218871;28;20148;-79
2023/10/11 15:01:25;;;;;;;11.55;3.45;;;29.40;48.40;;;;;;6224677;28;20400;-82
2023/10/11 15:04:37;;;;;;;6.22;3.28;;;29.30;48.40;;;;;;6210414;28;20042;-81
2023/10/11 15:07:44;;;;;;;6.13;3.83;;;29.00;48.60;;;;;;6198388;28;20156;-82
2023/10/11 15:10:55;;;;;;;9.63;2.63;;;28.60;48.90;;;;;;6198328;28;20083;-80
2023/10/11 15:14:11;;;;;;;11.63;2.70;;;28.30;49.40;;;;;;6198408;28;20128;-82
2023/10/11 15:17:22;;;;;;;13.55;3.47;;;27.90;49.70;;;;;;6199709;28;20225;-81
2023/10/11 15:20:31;;;;;;;6.35;2.20;;;27.50;50.20;;;;;;6199520;28;20046;-79
2023/10/11 15:23:44;;;;;;;8.25;3.05;;;27.30;50.70;;;;;;6209632;28;20069;-81
2023/10/11 15:26:46;;;;;;;7.53;2.85;;;27.10;51.20;;;;;;6225381;28;20135;-80
2023/10/11 15:29:49;;;;;;;9.02;3.00;;;26.80;51.50;;;;;;6215252;28;20156;-79
2023/10/11 15:32:51;;;;;;;11.90;3.28;;;26.60;51.90;;;;;;6225854;28;20240;-80
2023/10/11 15:35:57;;;;;;;5.28;3.00;;;26.50;52.30;;;;;;6224963;28;20067;-80
2023/10/11 15:38:58;;;;;;;6.80;2.50;;;26.30;52.80;;;;;;6225544;28;20368;-80
2023/10/11 15:42:06;;;;;;;9.60;3.50;;;26.10;53.10;;;;;;6217582;28;20671;-80
2023/10/11 15:45:15;;;;;;;;;;;25.90;53.90;;;;;;6228502;28;20050;-77
2023/10/11 15:48:22;;;;;;;11.98;4.95;;;25.70;53.30;;;;;;6211263;28;19921;-80
2023/10/11 15:51:24;;;;;;;8.90;2.80;;;25.60;54.20;;;;;;6203563;28;20046;-78
2023/10/11 15:54:44;;;;;;;6.10;2.95;;;25.40;54.60;;;;;;6201349;28;20058;-79
2023/10/11 15:57:49;;;;;;;13.98;4.07;;;25.30;55.30;;;;;;6203042;28;20054;-81
2023/10/11 16:01:03;;;;;;;7.13;2.40;;;25.10;55.80;;;;;;6203314;28;20042;-81
2023/10/11 16:04:11;;;;;;;6.88;2.63;;;25.00;56.50;;;;;;6201324;28;20050;-79
2023/10/11 16:07:21;;;;;;;6.18;2.97;;;24.80;57.20;;;;;;6206921;28;20143;-81
2023/10/11 16:10:23;;;;;;;6.57;3.40;;;24.70;58.60;;;;;;6221831;28;20061;-79
2023/10/11 16:13:30;;;;;;;12.82;3.55;;;24.50;58.50;;;;;;6215103;28;20122;-79
2023/10/11 16:16:38;;;;;;;12.65;4.53;;;24.30;59.30;;;;;;6236400;28;20471;-82
2023/10/11 16:19:41;;;;;;;8.40;2.60;;;24.00;60.20;;;;;;6230036;28;20522;-81
2023/10/11 16:22:43;;;;;;;6.55;2.83;;;23.90;60.80;;;;;;6211083;28;20044;-79
2023/10/11 16:25:45;;;;;;;6.57;2.85;;;23.60;61.50;;;;;;6205288;28;20038;-80
2023/10/11 16:28:50;;;;;;;49.50;24.13;;;23.40;62.40;;;;;;6208354;28;20053;-79
2023/10/11 16:31:53;;;;;;;15.40;7.70;;;23.10;63.50;;;;;;6198045;28;20049;-82
2023/10/11 16:34:55;;;;;;;13.55;6.20;;;22.90;64.40;;;;;;6226308;28;20045;-80
2023/10/11 16:37:57;;;;;;;10.15;5.25;;;22.70;65.30;;;;;;6205929;28;20050;-82
2023/10/11 16:41:00;;;;;;;7.13;3.88;;;22.40;66.00;;;;;;6230804;28;20045;-78
2023/10/11 16:44:01;;;;;;;6.28;2.88;;;22.20;66.70;;;;;;6209852;28;20076;-81
2023/10/11 16:47:08;;;;;;;11.43;3.58;;;22.00;67.50;;;;;;6225576;28;20054;-80